Time;durP1;ratioP1;P1;durP2;ratioP2;P2;SDS_P1;SDS_P2;PMS_P1;PMS_P2;Temp;Humidity;BMP_temperature;BMP_pressure;BME280_temperature;BME280_humidity;BME280_pressure;Samples;Min_cycle;Max_cycle;Signal;HPM_P1;HPM_P2
2022/08/14 00:02:00;;;;;;;1999.90;999.90;;;21.50;99.90;;;;;;5033942;28;20077;-60
2022/08/14 00:04:26;;;;;;;1999.90;999.90;;;21.50;99.90;;;;;;5033488;28;20057;-60
2022/08/14 00:06:52;;;;;;;1999.90;999.90;;;21.40;99.90;;;;;;5033468;28;20080;-60
2022/08/14 00:09:18;;;;;;;1999.90;999.90;;;21.40;99.90;;;;;;5034223;28;20488;-60
2022/08/14 00:11:44;;;;;;;1999.90;999.90;;;21.50;99.90;;;;;;5033401;28;20080;-60
2022/08/14 00:14:10;;;;;;;1999.90;999.90;;;21.50;99.90;;;;;;5033188;28;20124;-60
2022/08/14 00:16:36;;;;;;;1999.90;999.90;;;21.50;99.90;;;;;;5033740;28;20052;-60
2022/08/14 00:19:03;;;;;;;1999.90;999.90;;;21.50;99.90;;;;;;5033256;28;20088;-60
2022/08/14 00:21:29;;;;;;;1999.90;999.90;;;21.60;99.90;;;;;;5033733;28;20404;-60
2022/08/14 00:23:55;;;;;;;1999.90;999.90;;;21.60;99.90;;;;;;5033326;28;20053;-60
2022/08/14 00:26:23;;;;;;;1999.90;999.90;;;21.60;99.90;;;;;;5033173;28;20042;-60
2022/08/14 00:28:49;;;;;;;1999.90;999.90;;;21.60;99.90;;;;;;5033684;28;20053;-60
2022/08/14 00:31:16;;;;;;;1999.90;999.90;;;21.50;99.90;;;;;;5015591;28;20046;-60
2022/08/14 00:33:42;;;;;;;1999.90;999.90;;;21.60;99.90;;;;;;5032311;28;20499;-60
2022/08/14 00:36:08;;;;;;;1999.90;999.90;;;21.50;99.90;;;;;;5033740;28;20107;-60
2022/08/14 00:38:35;;;;;;;1999.90;999.90;;;21.50;99.90;;;;;;5033440;28;20050;-60
2022/08/14 00:41:03;;;;;;;1999.90;999.90;;;21.50;99.90;;;;;;5011722;28;20084;-60
2022/08/14 00:43:29;;;;;;;1999.90;999.90;;;21.50;99.90;;;;;;5033646;28;20053;-60
2022/08/14 00:45:55;;;;;;;1999.90;999.90;;;21.50;99.90;;;;;;5033169;28;20045;-60
2022/08/14 00:48:20;;;;;;;1999.90;999.90;;;21.40;99.90;;;;;;5031283;28;20433;-60
2022/08/14 00:50:46;;;;;;;1999.90;999.90;;;21.30;99.90;;;;;;5032985;28;20072;-60
2022/08/14 00:53:15;;;;;;;1999.90;999.90;;;21.30;99.90;;;;;;5032985;28;20049;-60
2022/08/14 00:55:42;;;;;;;1999.90;999.90;;;21.10;99.90;;;;;;5032412;28;20049;-60
2022/08/14 01:00:52;;;;;;;1999.90;999.90;;;21.00;99.90;;;;;;5012440;28;20054;-60
2022/08/14 01:03:19;;;;;;;1999.90;999.90;;;20.90;99.90;;;;;;5021216;28;20523;-60
2022/08/14 01:05:48;;;;;;;1999.90;999.90;;;20.90;99.90;;;;;;5015274;28;20484;-60
2022/08/14 01:08:20;;;;;;;1999.90;999.90;;;20.90;99.90;;;;;;5013603;28;20499;-60
2022/08/14 01:10:50;;;;;;;1999.90;999.90;;;20.90;99.90;;;;;;5033112;28;20041;-60
2022/08/14 01:13:21;;;;;;;1999.90;999.90;;;20.90;99.90;;;;;;5032741;28;20495;-60
2022/08/14 01:15:51;;;;;;;1999.90;999.90;;;20.90;99.90;;;;;;5032141;28;20054;-60
2022/08/14 01:21:05;;;;;;;1999.90;999.90;;;20.80;99.90;;;;;;5032317;28;20053;-60
2022/08/14 01:23:33;;;;;;;1999.90;999.90;;;20.70;99.90;;;;;;5032207;28;20049;-60
2022/08/14 01:25:59;;;;;;;1999.90;999.90;;;20.60;99.90;;;;;;5032552;28;20060;-60
2022/08/14 01:28:25;;;;;;;1999.90;999.90;;;20.40;99.90;;;;;;5032637;28;20049;-60
2022/08/14 01:30:56;;;;;;;1999.90;999.90;;;20.10;99.90;;;;;;5032168;28;20037;-60
2022/08/14 01:33:29;;;;;;;1999.90;999.90;;;20.30;99.90;;;;;;5032575;28;20057;-60
2022/08/14 01:35:59;;;;;;;1999.90;999.90;;;20.30;99.90;;;;;;5013529;28;20118;-60
2022/08/14 01:38:30;;;;;;;1999.90;999.90;;;20.30;99.90;;;;;;5032941;28;20050;-60
2022/08/14 01:40:56;;;;;;;1999.90;999.90;;;20.30;99.90;;;;;;5032421;28;20132;-60
2022/08/14 01:43:22;;;;;;;1999.90;999.90;;;20.30;99.90;;;;;;5031225;28;20042;-60
2022/08/14 01:45:52;;;;;;;1999.90;999.90;;;20.40;99.90;;;;;;5033072;28;20392;-60
2022/08/14 01:48:18;;;;;;;1999.90;999.90;;;20.50;99.90;;;;;;5032710;28;20052;-60
2022/08/14 01:50:44;;;;;;;1999.90;999.90;;;20.60;99.90;;;;;;5013805;28;20042;-60
2022/08/14 01:53:09;;;;;;;1999.90;999.90;;;20.70;99.90;;;;;;5031997;28;20048;-60
2022/08/14 01:55:38;;;;;;;1999.90;999.90;;;20.70;99.90;;;;;;5032808;28;20443;-60
2022/08/14 01:58:03;;;;;;;1999.90;999.90;;;20.70;99.90;;;;;;5011930;28;20037;-60
2022/08/14 02:00:29;;;;;;;1999.90;999.90;;;20.70;99.90;;;;;;5014411;28;20064;-60
2022/08/14 02:02:57;;;;;;;1999.90;999.90;;;20.70;99.90;;;;;;5026572;28;20093;-60
2022/08/14 02:05:28;;;;;;;1999.90;999.90;;;20.70;99.90;;;;;;5011897;28;20041;-60
2022/08/14 02:07:54;;;;;;;1999.90;999.90;;;20.60;99.90;;;;;;5012847;28;20068;-60
2022/08/14 02:10:20;;;;;;;1999.90;999.90;;;20.50;99.90;;;;;;5014172;28;20045;-60
2022/08/14 02:12:47;;;;;;;1999.90;999.90;;;20.40;99.90;;;;;;5031438;28;20052;-60
2022/08/14 02:15:13;;;;;;;1999.90;999.90;;;20.30;99.90;;;;;;5032618;28;20073;-60
2022/08/14 02:17:39;;;;;;;1999.90;999.90;;;20.20;99.90;;;;;;5032121;28;20127;-60
2022/08/14 02:20:07;;;;;;;1999.90;999.90;;;20.10;99.90;;;;;;5032005;28;20057;-60
2022/08/14 02:22:33;;;;;;;1999.90;999.90;;;20.00;99.90;;;;;;5036204;28;20056;-60
2022/08/14 02:25:00;;;;;;;1999.90;999.90;;;19.90;99.90;;;;;;5035386;28;20072;-60
2022/08/14 02:27:28;;;;;;;1999.90;999.90;;;19.80;99.90;;;;;;5012136;28;20423;-60
2022/08/14 02:29:55;;;;;;;1999.90;999.90;;;19.80;99.90;;;;;;5016040;28;20495;-60
2022/08/14 02:32:21;;;;;;;1999.90;999.90;;;19.70;99.90;;;;;;5033590;28;20107;-60
2022/08/14 02:34:47;;;;;;;1999.90;999.90;;;19.70;99.90;;;;;;5035305;28;20053;-60
2022/08/14 02:37:14;;;;;;;1999.90;999.90;;;19.60;99.90;;;;;;5035274;28;20510;-60
2022/08/14 02:39:44;;;;;;;1999.90;999.90;;;19.80;99.90;;;;;;5035260;28;20041;-60
2022/08/14 02:42:14;;;;;;;1999.90;999.90;;;19.80;99.90;;;;;;5001490;28;20054;-60
2022/08/14 02:44:42;;;;;;;1999.90;999.90;;;19.90;99.90;;;;;;5017324;28;20045;-60
2022/08/14 02:47:07;;;;;;;1999.90;999.90;;;20.00;99.90;;;;;;5034764;28;20483;-60
2022/08/14 02:49:34;;;;;;;1999.90;999.90;;;19.90;99.90;;;;;;5035562;28;20112;-60
2022/08/14 02:52:02;;;;;;;1999.90;999.90;;;20.00;99.90;;;;;;5035578;28;20120;-60
2022/08/14 02:54:29;;;;;;;1999.90;999.90;;;20.10;99.90;;;;;;5034129;28;20142;-60
2022/08/14 02:56:58;;;;;;;1999.90;999.90;;;20.10;99.90;;;;;;5017782;28;20456;-60
2022/08/14 02:59:28;;;;;;;1999.90;999.90;;;20.30;99.90;;;;;;5035217;28;20492;-60
2022/08/14 03:01:54;;;;;;;1999.90;999.90;;;20.20;99.90;;;;;;5034700;28;20045;-60
2022/08/14 03:04:21;;;;;;;1999.90;999.90;;;20.30;99.90;;;;;;5034529;28;20484;-60
2022/08/14 03:06:48;;;;;;;1999.90;999.90;;;20.30;99.90;;;;;;5017588;28;20137;-60
2022/08/14 03:09:14;;;;;;;1999.90;999.90;;;20.30;99.90;;;;;;5034448;28;20051;-60
2022/08/14 03:11:43;;;;;;;1999.90;999.90;;;20.40;99.90;;;;;;5016819;28;20050;-60
2022/08/14 03:14:10;;;;;;;1999.90;999.90;;;20.30;99.90;;;;;;5016470;28;20049;-60
2022/08/14 03:16:38;;;;;;;1999.90;999.90;;;20.30;99.90;;;;;;5035093;28;20045;-60
2022/08/14 03:19:06;;;;;;;1999.90;999.90;;;20.30;99.90;;;;;;5017354;28;20049;-60
2022/08/14 03:21:33;;;;;;;1999.90;999.90;;;20.20;99.90;;;;;;5027008;28;20451;-60
2022/08/14 03:24:10;;;;;;;1999.90;999.90;;;20.20;99.90;;;;;;5017100;28;20111;-60
2022/08/14 03:26:39;;;;;;;1999.90;999.90;;;20.20;99.90;;;;;;5034750;28;20049;-60
2022/08/14 03:29:06;;;;;;;1999.90;999.90;;;20.10;99.90;;;;;;5033849;28;20048;-60
2022/08/14 03:31:33;;;;;;;1999.90;999.90;;;20.10;99.90;;;;;;5034613;28;20045;-60
2022/08/14 03:33:59;;;;;;;1999.90;999.90;;;20.00;99.90;;;;;;5032907;28;20092;-60
2022/08/14 03:36:25;;;;;;;1999.90;999.90;;;20.00;99.90;;;;;;5034195;28;20488;-60
2022/08/14 03:38:54;;;;;;;1999.90;999.90;;;19.90;99.90;;;;;;5016089;28;20045;-60
2022/08/14 03:41:23;;;;;;;1999.90;999.90;;;19.90;99.90;;;;;;5025207;28;20384;-60
2022/08/14 03:43:54;;;;;;;1999.90;999.90;;;19.90;99.90;;;;;;5014274;28;20129;-60
2022/08/14 03:46:20;;;;;;;1999.90;999.90;;;19.90;99.90;;;;;;5014957;28;20054;-60
2022/08/14 03:48:47;;;;;;;1999.90;999.90;;;19.90;99.90;;;;;;5033454;28;20046;-60
2022/08/14 03:51:13;;;;;;;1999.90;999.90;;;19.80;99.90;;;;;;5033524;28;20042;-60
2022/08/14 03:53:43;;;;;;;1999.90;999.90;;;19.90;99.90;;;;;;5034306;28;20046;-60
2022/08/14 03:56:13;;;;;;;1999.90;999.90;;;19.90;99.90;;;;;;5033893;28;20041;-60
2022/08/14 03:58:44;;;;;;;1999.90;999.90;;;19.80;99.90;;;;;;5033726;28;20038;-60
2022/08/14 04:01:11;;;;;;;1999.90;999.90;;;19.90;99.90;;;;;;5016559;28;20140;-60
2022/08/14 04:03:37;;;;;;;1999.90;999.90;;;19.90;99.90;;;;;;5021269;28;20687;-60
2022/08/14 04:06:05;;;;;;;1999.90;999.90;;;19.90;99.90;;;;;;5016020;28;20115;-60
2022/08/14 04:08:35;;;;;;;1999.90;999.90;;;19.80;99.90;;;;;;5016576;28;20071;-60
2022/08/14 04:11:01;;;;;;;1999.90;999.90;;;19.80;99.90;;;;;;5033022;28;20537;-60
2022/08/14 04:13:27;;;;;;;1999.90;999.90;;;19.80;99.90;;;;;;5033537;28;20037;-60
2022/08/14 04:15:53;;;;;;;1999.90;999.90;;;19.80;99.90;;;;;;5016360;28;20057;-60
2022/08/14 04:18:19;;;;;;;1999.90;999.90;;;19.80;99.90;;;;;;5015122;28;20132;-60
2022/08/14 04:20:44;;;;;;;1999.90;999.90;;;19.90;99.90;;;;;;5033603;28;20049;-59
2022/08/14 04:23:10;;;;;;;1999.90;999.90;;;19.90;99.90;;;;;;5033537;28;20072;-60
2022/08/14 04:25:36;;;;;;;1999.90;999.90;;;20.00;99.90;;;;;;5032952;28;20065;-60
2022/08/14 04:28:04;;;;;;;1999.90;999.90;;;20.00;99.90;;;;;;5033572;28;20053;-60
2022/08/14 04:30:38;;;;;;;1999.90;999.90;;;19.90;99.90;;;;;;5033656;28;20484;-60
2022/08/14 04:33:06;;;;;;;1999.90;999.90;;;19.90;99.90;;;;;;5014619;28;20069;-60
2022/08/14 04:35:34;;;;;;;1999.90;999.90;;;20.00;99.90;;;;;;5015625;28;20076;-60
2022/08/14 04:43:35;;;;;;;1999.90;999.90;;;19.90;99.90;;;;;;5032985;28;20052;-60
2022/08/14 04:46:03;;;;;;;1999.90;999.90;;;19.80;99.90;;;;;;5032883;28;20068;-60
2022/08/14 04:48:29;;;;;;;1999.90;999.90;;;19.90;99.90;;;;;;5032807;28;20476;-60
2022/08/14 04:50:55;;;;;;;1999.90;999.90;;;19.90;99.90;;;;;;5033424;28;20061;-60
2022/08/14 04:53:24;;;;;;;1999.90;999.90;;;19.90;99.90;;;;;;5032464;28;20046;-60
2022/08/14 04:55:50;;;;;;;1999.90;999.90;;;19.90;99.90;;;;;;5032640;28;20057;-60
2022/08/14 04:58:18;;;;;;;1999.90;999.90;;;19.80;99.90;;;;;;5032972;28;20120;-60
2022/08/14 05:00:49;;;;;;;1999.90;999.90;;;19.90;99.90;;;;;;5032287;28;20522;-60
2022/08/14 05:03:19;;;;;;;1999.90;999.90;;;19.90;99.90;;;;;;5021908;28;20049;-60
2022/08/14 05:05:51;;;;;;;1999.90;999.90;;;19.90;99.90;;;;;;5033301;28;20053;-60
2022/08/14 05:08:17;;;;;;;1999.90;999.90;;;20.00;99.90;;;;;;5031763;28;20538;-59
2022/08/14 05:10:46;;;;;;;1999.90;999.90;;;20.10;99.90;;;;;;5015197;28;20472;-60
2022/08/14 05:13:12;;;;;;;1999.90;999.90;;;20.10;99.90;;;;;;5015113;28;20041;-59
2022/08/14 05:15:40;;;;;;;1999.90;999.90;;;20.20;99.90;;;;;;5032002;28;20048;-60
2022/08/14 05:18:11;;;;;;;1999.90;999.90;;;20.20;99.90;;;;;;5032607;28;20407;-60
2022/08/14 05:20:42;;;;;;;1999.90;999.90;;;20.30;99.90;;;;;;5032695;28;20506;-60
2022/08/14 05:23:09;;;;;;;1999.90;999.90;;;20.20;99.90;;;;;;5032979;28;20037;-60
2022/08/14 05:25:35;;;;;;;1999.90;999.90;;;20.30;99.90;;;;;;5032283;28;20050;-60
2022/08/14 05:28:10;;;;;;;1999.90;999.90;;;20.50;99.90;;;;;;5032222;28;20152;-60
2022/08/14 05:30:37;;;;;;;1999.90;999.90;;;20.50;99.90;;;;;;5032701;28;20495;-60
2022/08/14 05:33:04;;;;;;;1999.90;999.90;;;20.60;99.90;;;;;;5015944;28;20046;-60
2022/08/14 05:35:31;;;;;;;1999.90;999.90;;;20.70;99.90;;;;;;5031804;28;20128;-60
2022/08/14 05:37:58;;;;;;;1999.90;999.90;;;20.90;99.90;;;;;;5032844;28;20037;-60
2022/08/14 05:40:25;;;;;;;1999.90;999.90;;;21.00;99.90;;;;;;5029393;28;20521;-60
2022/08/14 05:42:51;;;;;;;1999.90;999.90;;;21.30;99.90;;;;;;5023596;28;20053;-60
2022/08/14 05:45:17;;;;;;;1999.90;999.90;;;21.50;99.90;;;;;;5032805;28;20041;-60
2022/08/14 05:47:43;;;;;;;1999.90;999.90;;;21.30;99.90;;;;;;5032092;28;20408;-60
2022/08/14 05:50:11;;;;;;;1999.90;999.90;;;21.60;99.90;;;;;;5031788;28;20046;-60
2022/08/14 05:52:37;;;;;;;1999.90;999.90;;;21.50;99.90;;;;;;5032146;28;20045;-60
2022/08/14 05:55:05;;;;;;;1999.90;999.90;;;21.90;99.90;;;;;;5033031;28;20089;-60
2022/08/14 05:57:30;;;;;;;1999.90;999.90;;;21.80;99.90;;;;;;5036028;28;20365;-60
2022/08/14 05:59:56;;;;;;;1999.90;999.90;;;22.20;99.90;;;;;;5036028;28;20092;-60
2022/08/14 06:02:22;;;;;;;1999.90;999.90;;;22.10;99.90;;;;;;5034377;28;20045;-60
2022/08/14 06:04:48;;;;;;;1999.90;999.90;;;22.20;99.90;;;;;;5015956;28;20058;-60
2022/08/14 06:07:14;;;;;;;1999.90;999.90;;;22.20;99.90;;;;;;5015376;28;20120;-60
2022/08/14 06:09:40;;;;;;;1999.90;999.90;;;22.30;99.90;;;;;;5017782;28;20064;-60
2022/08/14 06:12:07;;;;;;;1999.90;999.90;;;22.20;99.90;;;;;;5035587;28;20041;-60
2022/08/14 06:14:33;;;;;;;1999.90;999.90;;;22.40;99.90;;;;;;5018314;28;20056;-60
2022/08/14 06:16:58;;;;;;;1999.90;999.90;;;22.30;99.90;;;;;;5034825;28;20046;-60
2022/08/14 06:19:24;;;;;;;1999.90;999.90;;;22.10;99.90;;;;;;5014899;28;20045;-60
2022/08/14 06:21:51;;;;;;;1999.90;999.90;;;22.20;99.90;;;;;;5016310;28;20045;-60
2022/08/14 06:24:17;;;;;;;1999.90;999.90;;;22.30;99.90;;;;;;5015383;28;20046;-60
2022/08/14 06:26:44;;;;;;;1999.90;999.90;;;22.00;99.90;;;;;;5024580;28;20034;-60
2022/08/14 06:29:10;;;;;;;1999.90;999.90;;;22.30;99.90;;;;;;5035985;28;20052;-60
2022/08/14 06:31:36;;;;;;;1999.90;999.90;;;22.00;99.90;;;;;;5034825;28;20468;-60
2022/08/14 06:34:03;;;;;;;1999.90;999.90;;;;;;;;;;5035694;28;20060;-60
2022/08/14 06:36:29;;;;;;;1999.90;999.90;;;22.80;99.90;;;;;;5017568;28;20053;-60
2022/08/14 06:38:55;;;;;;;1999.90;999.90;;;23.00;99.90;;;;;;5017394;28;20061;-60
2022/08/14 06:41:22;;;;;;;1999.90;999.90;;;23.10;99.90;;;;;;5033169;28;20049;-60
2022/08/14 06:43:48;;;;;;;1999.90;999.90;;;23.30;99.90;;;;;;5035443;28;20080;-60
2022/08/14 06:46:14;;;;;;;1999.90;999.90;;;23.50;99.90;;;;;;5017022;28;20041;-60
2022/08/14 06:48:40;;;;;;;1999.90;999.90;;;23.70;99.90;;;;;;5035231;28;20042;-60
2022/08/14 06:51:05;;;;;;;1999.90;999.90;;;23.90;99.90;;;;;;5035679;28;20057;-60
2022/08/14 06:53:32;;;;;;;1999.90;999.90;;;24.10;99.90;;;;;;5023754;28;20133;-60
2022/08/14 06:55:58;;;;;;;1999.90;999.90;;;24.30;99.90;;;;;;5015266;28;20602;-60
2022/08/14 06:58:23;;;;;;;1999.90;999.90;;;24.50;99.90;;;;;;5015814;28;20124;-60
2022/08/14 07:06:18;;;;;;;1999.90;999.90;;;25.00;99.90;;;;;;5034352;28;20064;-60
2022/08/14 07:08:44;;;;;;;1999.90;999.90;;;25.10;99.90;;;;;;5034834;28;20396;-60
2022/08/14 07:11:11;;;;;;;1999.90;999.90;;;25.30;99.90;;;;;;5034891;28;20050;-60
2022/08/14 07:13:37;;;;;;;1999.90;999.90;;;25.50;99.90;;;;;;5034602;28;20064;-60
2022/08/14 07:16:04;;;;;;;1999.90;999.90;;;25.60;99.90;;;;;;5035022;28;20041;-60
2022/08/14 07:18:32;;;;;;;1999.90;999.90;;;25.80;99.90;;;;;;5017205;28;20045;-60
2022/08/14 07:21:00;;;;;;;1999.90;999.90;;;25.90;99.90;;;;;;5033883;28;20041;-60
2022/08/14 07:23:26;;;;;;;1999.90;999.90;;;26.10;99.90;;;;;;5034600;28;20049;-60
2022/08/14 07:25:55;;;;;;;1999.90;999.90;;;26.20;99.90;;;;;;5017224;28;20061;-60
2022/08/14 07:28:27;;;;;;;1999.90;999.90;;;26.40;99.90;;;;;;5028147;28;20034;-60
2022/08/14 07:30:56;;;;;;;1999.90;999.90;;;26.50;99.90;;;;;;5017828;28;20042;-60
2022/08/14 07:33:24;;;;;;;1999.90;999.90;;;26.70;99.90;;;;;;5034510;28;20072;-60
2022/08/14 07:35:50;;;;;;;1999.90;999.90;;;26.90;99.90;;;;;;5034185;28;20049;-60
2022/08/14 07:38:19;;;;;;;1999.90;999.90;;;27.00;99.90;;;;;;5033826;28;20049;-60
2022/08/14 07:40:47;;;;;;;1999.90;999.90;;;27.10;99.90;;;;;;5030217;28;20050;-60
2022/08/14 07:43:12;;;;;;;1999.90;999.90;;;27.30;99.60;;;;;;5014269;28;20131;-60
2022/08/14 07:45:39;;;;;;;1999.90;999.90;;;27.40;99.30;;;;;;5014447;28;20080;-60
2022/08/14 07:48:05;;;;;;;1999.90;999.90;;;27.50;98.90;;;;;;5021702;28;20045;-60
2022/08/14 07:50:31;;;;;;;1999.90;999.90;;;27.60;98.80;;;;;;5016001;28;20061;-60
2022/08/14 07:52:58;;;;;;;1999.90;999.90;;;27.70;98.30;;;;;;5016292;28;20041;-60
2022/08/14 07:55:25;;;;;;;1999.90;999.90;;;;;;;;;;5033510;28;20064;-60
2022/08/14 07:57:51;;;;;;;1999.90;999.90;;;28.00;97.70;;;;;;5016605;28;20502;-60
2022/08/14 08:00:21;;;;;;;1999.90;999.90;;;28.10;97.80;;;;;;5033923;28;20395;-60
2022/08/14 08:02:51;;;;;;;1999.90;999.90;;;28.30;97.30;;;;;;5012053;28;20042;-60
2022/08/14 08:05:18;;;;;;;1999.90;999.90;;;28.40;97.40;;;;;;4998555;28;20074;-60
2022/08/14 08:07:46;;;;;;;1999.90;999.90;;;28.60;96.90;;;;;;5006653;28;20054;-60
2022/08/14 08:10:30;;;;;;;1999.90;999.90;;;28.70;96.60;;;;;;4993294;28;20054;-60
2022/08/14 08:12:59;;;;;;;1999.90;999.90;;;28.80;96.30;;;;;;5004455;28;20093;-60
2022/08/14 08:15:26;;;;;;;1999.90;999.90;;;28.90;95.30;;;;;;5014188;28;20120;-60
2022/08/14 08:17:53;;;;;;;1999.90;999.90;;;29.10;95.90;;;;;;5012732;28;20045;-60
2022/08/14 08:20:23;;;;;;;1999.90;999.90;;;29.20;95.10;;;;;;5012796;28;20093;-60
2022/08/14 08:22:50;;;;;;;1999.90;999.90;;;29.30;95.20;;;;;;5028786;28;20049;-60
2022/08/14 08:25:17;;;;;;;1999.90;999.90;;;29.40;95.10;;;;;;5013592;28;20057;-60
2022/08/14 08:27:54;;;;;;;1999.90;999.90;;;29.50;95.00;;;;;;5014262;28;20050;-60
2022/08/14 08:30:20;;;;;;;1999.90;999.90;;;29.60;93.80;;;;;;5013486;28;20452;-60
2022/08/14 08:32:46;;;;;;;1999.90;999.90;;;29.70;92.90;;;;;;5015984;28;20045;-61
2022/08/14 08:35:19;;;;;;;1999.90;999.90;;;29.70;92.60;;;;;;5053727;28;20052;-60
2022/08/14 08:37:47;;;;;;;1999.90;999.90;;;29.80;92.60;;;;;;5051453;28;20053;-60
2022/08/14 08:40:27;;;;;;;1999.90;999.90;;;29.90;92.70;;;;;;5052900;28;20531;-61
2022/08/14 08:42:53;;;;;;;1999.90;999.90;;;30.00;91.70;;;;;;5053251;28;20446;-61
2022/08/14 08:45:20;;;;;;;1999.90;999.90;;;30.00;91.30;;;;;;5051096;28;20122;-60
2022/08/14 08:47:46;;;;;;;1999.90;999.90;;;30.00;91.40;;;;;;5051738;28;20128;-60
2022/08/14 08:50:29;;;;;;;1999.90;999.90;;;30.10;91.60;;;;;;5053534;28;20067;-60
2022/08/14 08:52:58;;;;;;;1999.90;999.90;;;30.20;91.60;;;;;;5052399;28;20116;-60
2022/08/14 08:55:25;;;;;;;1999.90;999.90;;;30.30;90.70;;;;;;5050462;28;20479;-60
2022/08/14 08:57:56;;;;;;;1999.90;999.90;;;30.50;90.70;;;;;;5052961;28;20102;-60
2022/08/14 09:00:22;;;;;;;1999.90;999.90;;;30.50;90.20;;;;;;5052157;28;20119;-60
2022/08/14 09:02:56;;;;;;;1999.90;999.90;;;30.60;90.10;;;;;;5053025;28;20459;-60
2022/08/14 09:05:23;;;;;;;1999.90;999.90;;;30.70;89.80;;;;;;5052876;28;20127;-60
2022/08/14 09:07:49;;;;;;;1999.90;999.90;;;30.90;89.20;;;;;;5052147;28;20045;-60
2022/08/14 09:10:18;;;;;;;1999.90;999.90;;;31.10;97.60;;;;;;5053287;28;20114;-61
2022/08/14 09:12:45;;;;;;;1999.90;999.90;;;;;;;;;;5052795;28;20041;-60
2022/08/14 09:15:12;;;;;;;1999.90;999.90;;;31.40;89.70;;;;;;5052233;28;20049;-60
2022/08/14 09:17:38;;;;;;;1999.90;999.90;;;31.20;87.30;;;;;;5053156;28;20045;-60
2022/08/14 09:20:05;;;;;;;1999.90;999.90;;;31.30;87.70;;;;;;5047845;28;20053;-60
2022/08/14 09:22:31;;;;;;;1999.90;999.90;;;31.40;86.70;;;;;;5037346;28;20037;-60
2022/08/14 09:24:57;;;;;;;1999.90;999.90;;;31.50;86.30;;;;;;5051774;28;20045;-61
2022/08/14 09:27:23;;;;;;;1999.90;999.90;;;31.60;84.20;;;;;;5051481;28;20029;-60
2022/08/14 09:29:48;;;;;;;1999.90;999.90;;;31.80;83.60;;;;;;5051671;28;20059;-60
2022/08/14 09:32:26;;;;;;;1999.90;999.90;;;31.80;84.20;;;;;;5051901;28;20037;-61
2022/08/14 09:35:11;;;;;;;1999.90;999.90;;;31.90;83.30;;;;;;5057380;28;20053;-60
2022/08/14 09:37:51;;;;;;;1999.90;999.90;;;32.00;82.40;;;;;;5051724;28;20052;-60
2022/08/14 09:40:28;;;;;;;1999.90;999.90;;;32.20;82.10;;;;;;5051335;28;20103;-60
2022/08/14 09:43:01;;;;;;;1999.90;999.90;;;32.30;90.90;;;;;;5032081;28;20112;-61
2022/08/14 09:45:35;;;;;;;1999.90;999.90;;;32.70;96.50;;;;;;5040398;28;20037;-60
2022/08/14 09:48:12;;;;;;;1999.90;999.90;;;32.70;94.90;;;;;;5052112;28;20050;-61
2022/08/14 09:50:48;;;;;;;1999.90;999.90;;;32.60;92.80;;;;;;5052090;28;20037;-61
2022/08/14 09:53:17;;;;;;;1999.90;999.90;;;32.70;92.60;;;;;;5046981;28;20056;-61
2022/08/14 09:55:43;;;;;;;1999.90;999.90;;;;;;;;;;5048018;28;20072;-60
2022/08/14 09:58:14;;;;;;;1999.90;999.90;;;32.70;78.40;;;;;;5047144;28;20049;-61
2022/08/14 10:00:44;;;;;;;1999.90;999.90;;;32.80;78.60;;;;;;5049845;28;20056;-60
2022/08/14 10:03:10;;;;;;;1999.90;999.90;;;32.80;77.60;;;;;;5050085;28;20528;-61
2022/08/14 10:05:38;;;;;;;1999.90;999.90;;;32.90;76.50;;;;;;5052040;28;20521;-61
2022/08/14 10:08:15;;;;;;;1999.90;999.90;;;33.00;76.10;;;;;;5051381;28;20041;-60
2022/08/14 10:10:41;;;;;;;1999.90;999.90;;;33.10;76.40;;;;;;5051215;28;20124;-61
2022/08/14 10:13:21;;;;;;;1999.90;999.90;;;33.00;76.50;;;;;;5034246;28;20048;-60
2022/08/14 10:15:48;;;;;;;1999.90;999.90;;;33.10;76.70;;;;;;5051295;28;20048;-61
2022/08/14 10:18:16;;;;;;;1999.90;999.90;;;33.20;74.60;;;;;;5050245;28;20180;-61
2022/08/14 10:20:50;;;;;;;1999.90;999.90;;;33.30;76.10;;;;;;5046669;28;20475;-60
2022/08/14 10:23:19;;;;;;;1999.90;999.90;;;33.50;73.90;;;;;;5050915;28;20454;-61
2022/08/14 10:25:49;;;;;;;1999.90;999.90;;;33.80;74.10;;;;;;5051442;28;20049;-61
2022/08/14 10:28:16;;;;;;;1999.90;999.90;;;34.10;73.60;;;;;;5051537;28;20053;-61
2022/08/14 10:30:47;;;;;;;1999.90;999.90;;;34.50;71.70;;;;;;5051003;28;20398;-61
2022/08/14 10:33:26;;;;;;;1999.90;999.90;;;34.90;70.30;;;;;;5051821;28;20056;-61
2022/08/14 10:35:52;;;;;;;1999.90;999.90;;;35.50;69.00;;;;;;5032296;28;20049;-61
2022/08/14 10:38:27;;;;;;;1999.90;999.90;;;36.10;66.70;;;;;;5050121;28;20041;-61
2022/08/14 10:40:53;;;;;;;1999.90;999.90;;;36.50;65.00;;;;;;5047077;28;20044;-61
2022/08/14 10:43:24;;;;;;;1999.90;999.90;;;36.80;63.80;;;;;;5052946;28;20056;-61
2022/08/14 10:46:00;;;;;;;1999.90;999.90;;;37.10;62.90;;;;;;5048029;28;20083;-61
2022/08/14 10:48:26;;;;;;;1999.90;999.90;;;37.60;60.60;;;;;;5055258;28;20052;-61
2022/08/14 10:50:53;;;;;;;1999.90;999.90;;;37.90;59.10;;;;;;5054963;28;20116;-61
2022/08/14 10:53:35;;;;;;;1999.90;999.90;;;38.20;58.10;;;;;;5053812;28;20052;-61
2022/08/14 10:56:09;;;;;;;1999.90;999.90;;;38.20;57.10;;;;;;5054680;28;20107;-61
2022/08/14 10:58:35;;;;;;;1999.90;999.90;;;38.40;56.40;;;;;;5035510;28;20037;-61
2022/08/14 11:01:04;;;;;;;1999.90;999.90;;;38.60;55.80;;;;;;5042213;28;20041;-61
2022/08/14 11:03:39;;;;;;;1999.90;999.90;;;38.70;55.20;;;;;;5044961;28;20049;-61
2022/08/14 11:06:15;;;;;;;1999.90;999.90;;;38.80;54.50;;;;;;5034202;28;20392;-61
2022/08/14 11:08:41;;;;;;;1999.90;999.90;;;39.10;54.20;;;;;;5035432;28;20103;-61
2022/08/14 11:11:07;;;;;;;1999.90;999.90;;;39.40;53.60;;;;;;5052473;28;20040;-61
2022/08/14 11:13:32;;;;;;;1999.90;999.90;;;39.70;53.00;;;;;;5053209;28;20083;-61
2022/08/14 11:16:00;;;;;;;1999.90;999.90;;;39.90;52.20;;;;;;5054788;28;20091;-61
2022/08/14 11:18:27;;;;;;;1999.90;999.90;;;40.10;51.80;;;;;;5054759;28;20048;-61
2022/08/14 11:20:55;;;;;;;1999.90;999.90;;;39.70;51.60;;;;;;5051876;28;20036;-61
2022/08/14 11:23:26;;;;;;;1999.90;999.90;;;39.30;52.10;;;;;;5053241;28;20394;-61
2022/08/14 11:25:55;;;;;;;1999.90;999.90;;;39.50;51.70;;;;;;5053542;28;20041;-61
2022/08/14 11:28:22;;;;;;;1999.90;999.90;;;39.40;50.90;;;;;;5052936;28;20399;-61
2022/08/14 11:30:49;;;;;;;1999.90;999.90;;;39.50;51.00;;;;;;5053103;28;20055;-61
2022/08/14 11:33:15;;;;;;;1999.90;999.90;;;39.50;51.30;;;;;;5053760;28;20136;-61
2022/08/14 11:35:46;;;;;;;1999.90;999.90;;;39.40;50.70;;;;;;5052938;28;20136;-61
2022/08/14 11:38:12;;;;;;;1999.90;999.90;;;39.60;50.20;;;;;;5069870;28;20438;-61
2022/08/14 11:40:38;;;;;;;1999.90;999.90;;;39.90;49.50;;;;;;5053176;28;20037;-62
2022/08/14 11:43:05;;;;;;;1999.90;999.90;;;40.00;49.40;;;;;;5053602;28;20045;-61
2022/08/14 11:45:34;;;;;;;1999.90;999.90;;;40.30;49.60;;;;;;5052473;28;20560;-61
2022/08/14 11:48:13;;;;;;;1999.90;999.90;;;40.20;48.50;;;;;;5053333;28;20061;-61
2022/08/14 11:50:39;;;;;;;1999.90;999.90;;;40.20;49.10;;;;;;5036470;28;20049;-61
2022/08/14 11:53:06;;;;;;;1999.90;999.90;;;40.50;48.90;;;;;;5053696;28;20049;-61
2022/08/14 11:55:35;;;;;;;1999.90;999.90;;;40.80;47.60;;;;;;5053184;28;20041;-61
2022/08/14 11:58:05;;;;;;;1999.90;999.90;;;40.90;47.70;;;;;;5053411;28;20055;-61
2022/08/14 12:00:32;;;;;;;1999.90;999.90;;;40.70;47.80;;;;;;5053879;28;20049;-60
2022/08/14 12:03:00;;;;;;;1999.90;999.90;;;40.80;48.00;;;;;;5049968;28;20128;-61
2022/08/14 12:05:33;;;;;;;1999.90;999.90;;;41.00;47.70;;;;;;5053546;28;20037;-61
2022/08/14 12:08:00;;;;;;;1999.90;999.90;;;41.00;48.30;;;;;;5051454;28;20119;-61
2022/08/14 12:10:28;;;;;;;1999.90;999.90;;;41.30;47.40;;;;;;5052796;28;20479;-61
2022/08/14 12:12:55;;;;;;;1999.90;999.90;;;41.50;47.10;;;;;;5053365;28;20045;-61
2022/08/14 12:15:32;;;;;;;1999.90;999.90;;;;;;;;;;5053838;28;20048;-62
2022/08/14 12:17:59;;;;;;;1999.90;999.90;;;42.30;45.60;;;;;;5053227;28;20479;-61
2022/08/14 12:20:31;;;;;;;1999.90;999.90;;;42.00;45.90;;;;;;5051575;28;20055;-61
2022/08/14 12:22:59;;;;;;;1999.90;999.90;;;40.90;46.90;;;;;;5053067;28;20744;-61